Time;durP1;ratioP1;P1;durP2;ratioP2;P2;SDS_P1;SDS_P2;PMS_P1;PMS_P2;Temp;Humidity;BMP_temperature;BMP_pressure;BME280_temperature;BME280_humidity;BME280_pressure;Samples;Min_cycle;Max_cycle;Signal;HPM_P1;HPM_P2
2021/10/02 00:41:35;;;;;;;6.00;5.47;;;;;;;14.17;79.01;100425.69;4974041;28;20400;-75
2021/10/02 00:46:46;;;;;;;6.85;5.50;;;;;;;14.20;79.90;100405.25;4969968;28;20419;-75
2021/10/02 00:49:12;;;;;;;10.07;5.85;;;;;;;14.18;79.77;100424.59;4966805;28;20430;-75
2021/10/02 00:51:39;;;;;;;6.00;5.30;;;;;;;14.17;79.53;100427.59;4970898;28;20554;-75
2021/10/02 00:54:05;;;;;;;6.80;5.90;;;;;;;14.15;79.76;100424.31;4969004;28;20392;-75
2021/10/02 00:56:30;;;;;;;6.03;5.50;;;;;;;14.15;79.52;100432.50;4970383;28;20426;-75
2021/10/02 00:58:55;;;;;;;8.97;5.63;;;;;;;14.17;79.30;100430.31;4974419;28;20403;-75
2021/10/02 01:01:31;;;;;;;6.53;5.70;;;;;;;14.19;79.49;100428.16;4968650;28;20894;-75
2021/10/02 01:04:10;;;;;;;6.78;5.60;;;;;;;14.21;79.11;100415.06;4973895;28;20408;-75
2021/10/02 01:06:48;;;;;;;7.75;6.15;;;;;;;14.21;79.21;100415.06;4971467;28;20440;-75
2021/10/02 01:09:41;;;;;;;8.40;6.30;;;;;;;14.22;79.50;100408.53;4970665;28;20921;-75
2021/10/02 01:12:41;;;;;;;8.32;5.93;;;;;;;14.20;79.59;100405.25;4987580;28;20415;-75
2021/10/02 01:15:10;;;;;;;7.70;5.80;;;;;;;14.16;79.50;100399.50;4965375;28;20413;-75
2021/10/02 01:18:20;;;;;;;6.38;5.43;;;;;;;14.16;79.51;100394.06;4973903;28;20433;-75
2021/10/02 01:21:15;;;;;;;6.78;5.88;;;;;;;14.17;79.68;100390.25;4968453;28;20408;-75
2021/10/02 01:23:43;;;;;;;9.00;6.37;;;;;;;14.17;79.71;100394.88;4957696;28;20879;-75
2021/10/02 01:26:46;;;;;;;14.25;7.00;;;;;;;14.15;80.12;100402.50;4966624;28;20565;-75
2021/10/02 01:29:14;;;;;;;11.73;7.05;;;;;;;14.12;80.19;100401.16;4960988;28;20418;-75
2021/10/02 01:31:51;;;;;;;8.48;5.82;;;;;;;14.12;80.06;100394.88;4967623;28;20410;-75
2021/10/02 01:34:25;;;;;;;6.15;5.53;;;;;;;14.09;79.89;100398.97;4969515;28;20420;-75
2021/10/02 01:37:12;;;;;;;6.43;5.40;;;;;;;14.09;79.63;100398.97;4972437;28;20416;-75
2021/10/02 01:47:56;;;;;;;6.65;5.20;;;;;;;14.08;79.26;100396.50;4970458;28;20436;-75
2021/10/02 01:50:27;;;;;;;8.93;4.68;;;;;;;14.08;79.04;100388.31;4971130;28;20396;-75
2021/10/02 01:52:56;;;;;;;6.35;4.82;;;;;;;14.08;78.95;100391.06;4960007;28;20755;-75
2021/10/02 01:55:23;;;;;;;8.10;5.13;;;;;;;14.06;78.31;100383.16;4963360;28;20888;-75
2021/10/02 01:57:53;;;;;;;17.08;4.53;;;;;;;14.02;78.32;100377.44;4966392;28;20821;-75
2021/10/02 02:00:19;;;;;;;6.55;4.05;;;;;;;14.03;77.91;100383.66;4967807;28;20419;-75
2021/10/02 02:02:48;;;;;;;4.83;3.80;;;;;;;14.00;78.13;100379.59;4972651;28;20406;-75
2021/10/02 02:05:19;;;;;;;5.23;4.00;;;;;;;13.99;77.90;100369.78;4966427;28;20816;-75
2021/10/02 02:07:50;;;;;;;5.40;3.97;;;;;;;13.99;77.89;100372.50;4971739;28;20486;-75
2021/10/02 02:10:17;;;;;;;6.38;3.90;;;;;;;13.97;78.07;100363.78;4968848;28;20820;-75
2021/10/02 02:16:05;;;;;;;5.72;4.10;;;;;;;13.95;77.61;100356.97;4967068;28;20945;-75
2021/10/02 02:18:30;;;;;;;6.90;4.00;;;;;;;13.96;77.45;100361.34;4972153;28;20523;-75
2021/10/02 02:21:11;;;;;;;6.05;3.90;;;;;;;13.95;77.63;100359.69;4969804;28;20844;-75
2021/10/02 02:23:37;;;;;;;4.70;4.03;;;;;;;13.94;77.07;100364.31;4968234;28;20411;-75
2021/10/02 02:26:04;;;;;;;4.30;3.90;;;;;;;13.94;77.37;100355.31;4964701;28;20423;-75
2021/10/02 02:28:31;;;;;;;7.13;4.27;;;;;;;13.91;77.58;100358.59;4967423;28;20420;-75
2021/10/02 02:30:58;;;;;;;3.70;3.28;;;;;;;13.90;77.27;100357.75;4964944;28;20543;-75
2021/10/02 02:33:24;;;;;;;4.40;3.70;;;;;;;13.89;77.30;100360.78;4963497;28;20812;-75
2021/10/02 02:35:50;;;;;;;4.90;4.00;;;;;;;13.88;77.36;100354.50;4964747;28;20416;-75
2021/10/02 02:38:15;;;;;;;4.60;3.30;;;;;;;13.87;77.31;100349.31;5001376;28;20900;-75
2021/10/02 02:40:40;;;;;;;4.45;3.35;;;;;;;13.87;77.76;100355.59;4966107;28;20491;-75
2021/10/02 02:43:08;;;;;;;5.53;4.17;;;;;;;13.86;77.36;100353.94;4962917;28;20404;-75
2021/10/02 02:45:34;;;;;;;6.47;3.85;;;;;;;13.85;77.62;100360.50;4970604;28;20404;-75
2021/10/02 02:48:08;;;;;;;4.55;3.30;;;;;;;13.86;78.05;100359.38;4972287;28;20411;-75
2021/10/02 02:50:54;;;;;;;6.40;4.00;;;;;;;13.84;78.44;100353.41;4962676;28;20776;-75
2021/10/02 02:53:48;;;;;;;3.90;3.53;;;;;;;13.84;78.48;100352.56;4963495;28;20402;-75
2021/10/02 02:56:33;;;;;;;4.60;4.13;;;;;;;13.86;78.47;100351.22;4992559;28;20469;-75
2021/10/02 02:59:06;;;;;;;8.32;4.05;;;;;;;13.88;78.24;100348.25;4983395;28;20418;-75
2021/10/02 03:01:34;;;;;;;8.73;4.20;;;;;;;13.89;78.58;100347.16;4961546;28;20424;-75
2021/10/02 03:04:01;;;;;;;6.50;3.83;;;;;;;13.92;78.18;100343.88;4965074;28;20420;-75
2021/10/02 03:06:28;;;;;;;4.15;3.50;;;;;;;13.94;78.17;100341.72;4965202;28;20885;-75
2021/10/02 03:08:56;;;;;;;6.43;3.92;;;;;;;13.96;78.22;100337.63;4961203;28;20402;-75
2021/10/02 03:11:23;;;;;;;3.65;3.15;;;;;;;13.95;78.27;100333.28;4967693;28;20480;-75
2021/10/02 03:13:55;;;;;;;4.72;3.03;;;;;;;13.96;78.17;100336.81;4971082;28;20431;-75
2021/10/02 03:16:24;;;;;;;4.03;3.57;;;;;;;13.96;78.35;100340.34;4969511;28;20404;-75
2021/10/02 03:18:54;;;;;;;4.22;3.78;;;;;;;13.95;78.53;100336.00;4973369;28;20398;-75
2021/10/02 03:21:21;;;;;;;4.78;3.92;;;;;;;13.93;78.21;100331.88;4961370;28;20443;-75
2021/10/02 03:23:48;;;;;;;6.97;4.07;;;;;;;13.93;78.06;100329.97;4966103;28;20413;-75
2021/10/02 03:26:15;;;;;;;8.70;3.50;;;;;;;13.92;77.98;100322.91;4967326;28;20404;-75
2021/10/02 03:28:42;;;;;;;3.72;3.05;;;;;;;13.92;77.65;100328.38;4968046;28;20439;-75
2021/10/02 03:31:08;;;;;;;5.00;2.70;;;;;;;13.95;76.95;100327.81;4968814;28;20968;-75
2021/10/02 03:33:34;;;;;;;4.78;2.83;;;;;;;14.00;76.29;100327.00;4975948;28;20490;-75
2021/10/02 03:36:00;;;;;;;5.05;3.25;;;;;;;14.01;77.09;100326.75;4976239;28;20895;-75
2021/10/02 03:38:26;;;;;;;4.10;3.00;;;;;;;14.03;75.92;100329.19;4971305;28;20841;-75
2021/10/02 03:40:59;;;;;;;5.07;3.20;;;;;;;14.03;76.26;100327.28;4971513;28;20815;-75
2021/10/02 03:43:29;;;;;;;3.50;3.08;;;;;;;14.04;76.54;100325.38;4970278;28;20462;-75
2021/10/02 03:45:55;;;;;;;3.50;3.20;;;;;;;14.04;76.56;100337.09;4969299;28;20403;-75
2021/10/02 03:48:20;;;;;;;3.80;3.17;;;;;;;14.06;76.45;100333.28;4972069;28;20777;-75
2021/10/02 03:50:46;;;;;;;5.30;3.90;;;;;;;14.05;76.62;100335.19;4974486;28;20404;-75
2021/10/02 03:53:11;;;;;;;4.67;3.20;;;;;;;14.03;76.81;100338.19;4975226;28;20470;-75
2021/10/02 03:55:37;;;;;;;6.30;4.00;;;;;;;14.00;77.23;100333.28;4971732;28;20415;-75
2021/10/02 03:58:02;;;;;;;3.95;3.15;;;;;;;13.98;77.31;100332.72;4975632;28;20428;-75
2021/10/02 04:00:27;;;;;;;6.33;3.47;;;;;;;13.99;77.29;100336.28;4967840;28;20448;-75
2021/10/02 04:02:52;;;;;;;7.10;3.17;;;;;;;14.01;77.17;100334.09;4961202;28;20440;-75
2021/10/02 04:05:18;;;;;;;5.87;3.70;;;;;;;14.01;77.12;100334.09;4959433;28;20417;-74
2021/10/02 04:07:43;;;;;;;4.10;3.37;;;;;;;13.99;77.19;100334.34;4970787;28;20487;-75
2021/10/02 04:10:09;;;;;;;3.83;2.90;;;;;;;13.97;77.21;100330.25;4967558;28;20462;-75
2021/10/02 04:12:34;;;;;;;3.67;3.05;;;;;;;13.96;77.13;100329.44;4999946;28;20484;-75
2021/10/02 04:15:00;;;;;;;5.28;3.17;;;;;;;13.95;77.37;100318.84;4970257;28;20411;-75
2021/10/02 04:17:25;;;;;;;3.77;3.43;;;;;;;13.93;77.37;100318.25;4964436;28;20921;-75
2021/10/02 04:19:50;;;;;;;5.60;3.83;;;;;;;13.89;77.30;100304.41;4967111;28;20430;-74
2021/10/02 04:22:16;;;;;;;4.77;3.37;;;;;;;13.90;77.33;100302.47;4974864;28;20744;-75
2021/10/02 04:24:41;;;;;;;3.57;2.87;;;;;;;13.90;76.77;100299.75;4970134;28;20444;-76
2021/10/02 04:27:08;;;;;;;3.27;2.70;;;;;;;13.88;76.70;100294.56;4974831;28;20450;-75
2021/10/02 04:29:33;;;;;;;3.33;2.95;;;;;;;13.90;76.82;100305.19;4963189;28;20412;-75
2021/10/02 04:31:59;;;;;;;6.93;3.53;;;;;;;13.88;76.98;100310.91;4968339;28;20400;-75
2021/10/02 04:34:24;;;;;;;3.63;2.83;;;;;;;13.89;77.24;100306.28;4973932;28;20771;-75
2021/10/02 04:36:49;;;;;;;4.87;3.90;;;;;;;13.88;77.91;100310.09;4974747;28;20416;-75
2021/10/02 04:39:15;;;;;;;3.90;3.40;;;;;;;13.87;77.80;100289.38;4967771;28;20816;-75
2021/10/02 04:41:40;;;;;;;5.03;3.10;;;;;;;13.86;77.82;100296.72;4964359;28;20825;-75
2021/10/02 04:44:05;;;;;;;3.33;2.60;;;;;;;13.86;77.99;100296.72;4974484;28;20488;-75
2021/10/02 04:46:31;;;;;;;3.13;2.67;;;;;;;13.84;77.90;100284.47;4970454;28;20409;-75
2021/10/02 04:48:56;;;;;;;6.55;4.05;;;;;;;13.80;78.17;100281.47;4985320;28;20402;-75
2021/10/02 04:51:22;;;;;;;3.53;3.23;;;;;;;13.78;77.99;100283.66;4962873;28;20435;-75
2021/10/02 04:53:47;;;;;;;5.35;2.50;;;;;;;13.76;78.39;100276.84;4969868;28;20513;-75
2021/10/02 04:56:13;;;;;;;5.77;2.90;;;;;;;13.71;78.28;100271.38;4963480;28;20494;-75
2021/10/02 04:58:40;;;;;;;4.45;2.70;;;;;;;13.67;78.03;100267.56;4965119;28;20433;-75
2021/10/02 05:01:08;;;;;;;4.07;3.22;;;;;;;13.63;78.23;100264.59;4965708;28;20414;-75
2021/10/02 05:03:36;;;;;;;5.22;3.15;;;;;;;13.60;78.17;100275.19;4974421;28;20414;-75
2021/10/02 05:06:03;;;;;;;4.15;3.05;;;;;;;13.59;78.21;100268.94;4973445;28;20396;-75
2021/10/02 05:08:28;;;;;;;2.97;2.47;;;;;;;13.59;78.29;100262.66;4963669;28;20413;-75
2021/10/02 05:10:54;;;;;;;3.28;2.72;;;;;;;13.56;78.55;100269.47;4962290;28;21190;-75
2021/10/02 05:13:19;;;;;;;4.40;2.83;;;;;;;13.54;78.59;100274.34;4969633;28;20406;-75
2021/10/02 05:15:45;;;;;;;4.13;3.13;;;;;;;13.52;78.34;100281.97;4968962;28;20408;-75
2021/10/02 05:18:10;;;;;;;4.10;2.70;;;;;;;13.49;78.21;100279.78;4965723;28;20487;-75
2021/10/02 05:20:35;;;;;;;3.17;2.40;;;;;;;13.48;78.28;100283.59;4968969;28;20423;-75
2021/10/02 05:23:00;;;;;;;3.33;2.97;;;;;;;13.45;78.31;100275.97;4954366;28;20397;-75
2021/10/02 05:25:26;;;;;;;5.17;2.90;;;;;;;13.44;78.19;100288.75;4972183;28;20440;-75
2021/10/02 05:27:51;;;;;;;8.47;3.47;;;;;;;13.42;78.53;100296.38;4969931;28;20405;-75
2021/10/02 05:30:17;;;;;;;6.10;2.90;;;;;;;13.39;78.25;100286.03;4972238;28;20807;-75
2021/10/02 05:32:42;;;;;;;6.90;2.63;;;;;;;13.37;78.21;100290.91;4968209;28;20447;-75
2021/10/02 05:35:07;;;;;;;3.50;2.90;;;;;;;13.35;78.27;100284.09;4970725;28;20423;-76
2021/10/02 05:37:33;;;;;;;3.63;2.83;;;;;;;13.34;78.00;100286.00;4973117;28;20420;-75
2021/10/02 05:39:59;;;;;;;3.33;3.03;;;;;;;13.36;78.21;100286.56;4973118;28;20527;-75
2021/10/02 05:42:24;;;;;;;5.83;3.43;;;;;;;13.34;78.17;100286.00;4971869;28;20402;-75
2021/10/02 05:44:49;;;;;;;7.47;3.73;;;;;;;13.36;78.13;100286.56;4970464;28;20420;-75
2021/10/02 05:47:15;;;;;;;3.28;3.00;;;;;;;13.38;78.30;100278.13;4973040;28;20545;-75
2021/10/02 05:49:41;;;;;;;3.40;3.10;;;;;;;13.34;78.11;100275.09;4972738;28;20418;-75
2021/10/02 05:52:09;;;;;;;6.30;3.10;;;;;;;13.30;78.05;100273.22;4971081;28;20418;-75
2021/10/02 05:54:34;;;;;;;4.05;3.45;;;;;;;13.31;78.31;100270.19;4955333;28;20437;-75
2021/10/02 05:57:00;;;;;;;3.17;2.87;;;;;;;13.32;78.59;100269.13;4972225;28;20424;-75
2021/10/02 05:59:25;;;;;;;3.40;3.10;;;;;;;13.34;78.56;100257.94;4970249;28;20423;-75
2021/10/02 06:01:50;;;;;;;3.90;3.20;;;;;;;13.37;78.63;100273.78;4972825;28;20404;-75
2021/10/02 06:04:15;;;;;;;4.90;3.50;;;;;;;13.39;78.20;100266.16;4972299;28;20411;-75
2021/10/02 06:06:44;;;;;;;4.55;3.38;;;;;;;13.39;78.02;100277.03;4968555;28;20528;-75
2021/10/02 06:09:09;;;;;;;6.28;3.97;;;;;;;13.38;78.32;100276.22;4979757;28;20408;-75
2021/10/02 06:11:34;;;;;;;4.77;3.77;;;;;;;13.39;78.40;100282.47;4970866;28;20412;-75
2021/10/02 06:14:01;;;;;;;4.60;4.20;;;;;;;13.40;78.29;100275.97;4997936;28;20430;-75
2021/10/02 06:16:26;;;;;;;4.65;4.25;;;;;;;13.39;78.52;100275.13;4966507;28;20814;-75
2021/10/02 06:18:51;;;;;;;4.10;3.70;;;;;;;13.42;78.34;100276.50;4971206;28;20501;-75
2021/10/02 06:21:17;;;;;;;10.23;5.60;;;;;;;13.43;78.25;100286.31;4964731;28;20495;-74
2021/10/02 06:23:42;;;;;;;8.63;6.38;;;;;;;13.43;78.54;100292.59;4968624;28;20404;-75
2021/10/02 06:26:08;;;;;;;7.43;6.00;;;;;;;13.44;78.06;100290.66;4968399;28;20413;-75
2021/10/02 06:28:34;;;;;;;6.20;5.30;;;;;;;13.46;77.99;100291.22;4970304;28;20455;-74
2021/10/02 06:30:59;;;;;;;6.47;5.13;;;;;;;13.47;78.19;100295.56;4967136;28;20404;-76
2021/10/02 06:33:24;;;;;;;5.20;4.70;;;;;;;13.48;78.35;100305.38;4964484;28;20921;-75
2021/10/02 06:35:50;;;;;;;6.53;5.13;;;;;;;13.48;78.03;100292.59;4967710;28;20401;-75
2021/10/02 06:38:15;;;;;;;7.18;5.50;;;;;;;13.48;78.39;100294.47;4970880;28;20483;-75
2021/10/02 06:40:43;;;;;;;5.60;4.97;;;;;;;13.49;78.52;100309.75;4970670;28;20424;-75
2021/10/02 06:43:09;;;;;;;6.55;4.70;;;;;;;13.49;78.46;100313.28;4964672;28;20759;-76
2021/10/02 06:45:35;;;;;;;7.23;4.77;;;;;;;13.50;78.60;100309.44;4969567;28;20408;-76
2021/10/02 06:48:00;;;;;;;5.57;5.07;;;;;;;13.51;78.63;100305.66;4963407;28;20412;-76
2021/10/02 06:50:25;;;;;;;6.97;4.80;;;;;;;13.53;78.70;100302.69;4969537;28;20400;-75
2021/10/02 06:52:51;;;;;;;7.33;4.73;;;;;;;13.52;78.37;100295.59;4969447;28;20487;-75
2021/10/02 06:55:16;;;;;;;5.93;4.90;;;;;;;13.53;78.69;100292.59;4973953;28;20456;-77
2021/10/02 06:57:41;;;;;;;9.45;5.20;;;;;;;13.59;78.56;100288.00;4965367;28;20467;-76
2021/10/02 07:00:07;;;;;;;5.53;4.90;;;;;;;13.66;78.40;100295.91;4970036;28;20879;-75
2021/10/02 07:02:32;;;;;;;7.38;4.60;;;;;;;13.73;78.19;100293.75;5000945;28;20531;-77
2021/10/02 07:04:58;;;;;;;4.50;4.10;;;;;;;13.82;78.24;100281.22;4970239;28;20936;-76
2021/10/02 07:07:23;;;;;;;4.20;3.80;;;;;;;13.90;78.07;100284.22;4968515;28;20404;-75
2021/10/02 07:09:48;;;;;;;5.73;4.10;;;;;;;13.97;77.79;100290.22;4972409;28;20395;-76
2021/10/02 07:12:14;;;;;;;4.47;4.00;;;;;;;14.04;77.70;100284.50;4967643;28;20418;-76
2021/10/02 07:14:39;;;;;;;6.07;5.07;;;;;;;14.13;77.27;100295.69;4969945;28;20400;-76
2021/10/02 07:17:06;;;;;;;5.40;3.47;;;;;;;14.19;77.11;100294.59;4965221;28;20903;-76
2021/10/02 07:19:31;;;;;;;5.73;3.73;;;;;;;14.20;77.23;100288.03;4958954;28;20748;-76
2021/10/02 07:21:56;;;;;;;5.57;4.17;;;;;;;14.20;77.30;100282.59;4963018;28;20423;-75
2021/10/02 07:24:22;;;;;;;6.47;4.10;;;;;;;14.17;77.32;100281.22;4964016;28;20404;-75
2021/10/02 07:26:47;;;;;;;4.90;4.40;;;;;;;14.14;77.97;100284.50;4971950;28;20416;-75
2021/10/02 07:29:13;;;;;;;4.80;3.55;;;;;;;14.20;77.87;100285.31;4962962;28;20406;-75
2021/10/02 07:31:39;;;;;;;4.83;4.30;;;;;;;14.21;77.45;100289.69;4964753;28;20405;-76
2021/10/02 07:34:05;;;;;;;9.40;4.30;;;;;;;14.24;77.62;100278.25;4960606;28;20439;-75
2021/10/02 07:36:30;;;;;;;6.10;4.75;;;;;;;14.31;77.17;100278.78;4978992;28;20420;-75
2021/10/02 07:38:56;;;;;;;6.30;4.00;;;;;;;14.37;77.54;100281.25;4962776;28;20420;-74
2021/10/02 07:41:24;;;;;;;4.65;4.20;;;;;;;14.38;77.25;100282.91;4965499;28;20404;-75
2021/10/02 07:43:59;;;;;;;6.63;4.50;;;;;;;14.41;77.10;100285.09;4995347;28;20432;-73
2021/10/02 07:46:26;;;;;;;7.30;4.60;;;;;;;14.41;77.14;100292.44;4966937;28;20420;-74
2021/10/02 07:48:52;;;;;;;5.97;4.53;;;;;;;14.43;76.98;100295.69;4965442;28;20404;-75
2021/10/02 07:51:20;;;;;;;5.53;4.57;;;;;;;14.47;77.11;100291.34;4970320;28;21002;-73
2021/10/02 07:53:46;;;;;;;7.30;4.75;;;;;;;14.51;77.99;100297.88;4972023;28;20408;-74
2021/10/02 07:56:12;;;;;;;6.22;4.97;;;;;;;14.54;77.67;100289.97;4969543;28;20987;-74
2021/10/02 07:58:38;;;;;;;7.97;5.50;;;;;;;14.55;77.37;100288.88;4968577;28;20463;-73
2021/10/02 08:01:03;;;;;;;6.80;4.97;;;;;;;14.58;77.52;100292.97;4974374;28;20486;-73
2021/10/02 08:03:29;;;;;;;8.83;5.50;;;;;;;14.62;76.95;100295.97;4974370;28;21018;-74
2021/10/02 08:05:54;;;;;;;6.78;5.55;;;;;;;14.64;76.61;100297.31;4975463;28;20396;-74
2021/10/02 08:08:21;;;;;;;6.37;5.20;;;;;;;14.65;76.30;100292.69;4972795;28;20478;-74
2021/10/02 08:10:48;;;;;;;9.02;5.30;;;;;;;14.71;76.54;100291.59;4967208;28;20487;-73
2021/10/02 08:13:15;;;;;;;6.47;5.63;;;;;;;14.75;75.94;100293.47;4972418;28;20396;-74
2021/10/02 08:15:46;;;;;;;7.45;5.75;;;;;;;14.83;75.84;100294.81;4973298;28;20799;-75
2021/10/02 08:18:16;;;;;;;6.40;5.40;;;;;;;14.87;75.99;100287.72;4983338;28;20425;-73
2021/10/02 08:20:43;;;;;;;5.88;5.13;;;;;;;14.90;75.77;100287.97;4985650;28;20419;-73
2021/10/02 08:23:10;;;;;;;7.15;5.13;;;;;;;14.97;75.48;100293.16;4976490;28;20423;-74
2021/10/02 08:25:36;;;;;;;7.18;5.32;;;;;;;15.03;75.65;100287.41;4972217;28;20410;-73
2021/10/02 08:28:04;;;;;;;5.45;4.90;;;;;;;15.06;75.50;100284.09;4972511;28;21187;-76
2021/10/02 08:30:29;;;;;;;6.07;4.67;;;;;;;15.06;74.85;100284.09;4978798;28;20549;-75
2021/10/02 08:32:55;;;;;;;5.43;4.73;;;;;;;15.06;74.42;100273.19;4975863;28;20410;-76
2021/10/02 08:35:20;;;;;;;6.80;4.60;;;;;;;15.20;74.66;100267.97;4976061;28;20433;-75
2021/10/02 08:37:45;;;;;;;7.20;4.30;;;;;;;15.31;74.03;100263.28;4976767;28;20471;-75
2021/10/02 08:40:14;;;;;;;6.23;4.13;;;;;;;15.33;74.11;100258.34;4986212;28;20444;-75
2021/10/02 08:42:41;;;;;;;5.60;3.83;;;;;;;15.29;72.12;100255.34;4982171;28;20415;-76
2021/10/02 08:45:09;;;;;;;7.25;3.63;;;;;;;15.37;72.59;100256.69;4986907;28;20913;-77
2021/10/02 08:47:39;;;;;;;7.15;4.18;;;;;;;15.43;71.95;100263.75;4976036;28;20416;-76
2021/10/02 08:50:07;;;;;;;4.10;3.63;;;;;;;15.44;71.08;100255.25;4974545;28;20416;-75
2021/10/02 08:52:33;;;;;;;4.97;3.95;;;;;;;15.53;70.97;100259.06;4975656;28;20404;-75
2021/10/02 08:55:00;;;;;;;5.45;3.88;;;;;;;15.58;69.68;100252.75;4986162;28;20796;-75
2021/10/02 08:57:27;;;;;;;3.80;3.55;;;;;;;15.66;70.20;100254.06;4974699;28;20813;-75
2021/10/02 08:59:55;;;;;;;5.18;3.35;;;;;;;15.70;70.28;100250.50;4970085;28;20433;-75
2021/10/02 09:02:22;;;;;;;4.10;3.47;;;;;;;15.75;69.42;100252.38;4966324;28;20416;-75
2021/10/02 09:04:49;;;;;;;3.53;3.00;;;;;;;15.85;69.06;100250.38;4973805;28;20406;-76
2021/10/02 09:07:16;;;;;;;5.43;3.42;;;;;;;15.92;69.08;100247.34;4973601;28;20950;-74
2021/10/02 09:09:44;;;;;;;3.67;3.15;;;;;;;15.98;69.42;100249.75;4972209;28;20431;-74
2021/10/02 09:12:10;;;;;;;8.43;3.15;;;;;;;16.04;67.88;100237.66;4996558;28;20762;-74
2021/10/02 09:14:36;;;;;;;3.13;2.83;;;;;;;16.15;67.93;100248.50;4966144;28;20406;-75
2021/10/02 09:17:02;;;;;;;5.35;3.10;;;;;;;16.23;67.91;100237.78;4970967;28;20423;-75
2021/10/02 09:19:27;;;;;;;4.35;3.15;;;;;;;16.30;67.11;100234.72;4973546;28;20415;-74
2021/10/02 09:22:04;;;;;;;4.80;2.83;;;;;;;16.37;66.06;100229.69;4969823;28;20792;-74
2021/10/02 09:24:32;;;;;;;2.95;2.45;;;;;;;16.45;65.95;100224.44;4969782;28;20891;-75
2021/10/02 09:26:58;;;;;;;4.37;2.50;;;;;;;16.82;65.36;100212.84;4997872;28;20479;-74
2021/10/02 09:29:45;;;;;;;8.37;3.03;;;;;;;17.04;64.53;100204.91;4970564;28;20412;-74
2021/10/02 09:32:13;;;;;;;3.30;2.90;;;;;;;17.23;63.77;100207.66;4960865;28;20413;-74
2021/10/02 09:34:48;;;;;;;3.00;2.35;;;;;;;17.40;63.04;100201.66;4971504;28;20446;-74
2021/10/02 09:37:23;;;;;;;9.27;3.28;;;;;;;17.53;63.08;100206.41;4975243;28;20416;-74
2021/10/02 09:39:51;;;;;;;3.10;2.70;;;;;;;17.60;61.74;100195.94;4972093;28;20408;-74
2021/10/02 09:42:23;;;;;;;4.72;2.80;;;;;;;18.07;61.47;100194.88;4970969;28;20408;-74
2021/10/02 09:44:48;;;;;;;3.05;2.70;;;;;;;18.44;59.77;100189.25;4962550;28;20422;-74
2021/10/02 09:47:15;;;;;;;5.57;2.70;;;;;;;18.45;60.88;100181.84;4967088;28;20446;-74
2021/10/02 09:49:42;;;;;;;3.72;2.30;;;;;;;18.38;59.07;100175.94;4970860;28;20411;-75
2021/10/02 09:52:25;;;;;;;7.55;3.10;;;;;;;18.60;56.90;100165.13;4965886;28;20437;-74
2021/10/02 09:54:50;;;;;;;4.00;2.40;;;;;;;19.13;56.38;100157.13;4970335;28;20404;-74
2021/10/02 09:57:16;;;;;;;1.83;1.73;;;;;;;19.69;53.25;100162.19;4968744;28;20468;-74
2021/10/02 09:59:42;;;;;;;3.37;1.93;;;;;;;20.23;52.25;100154.72;4973156;28;20876;-75
2021/10/02 10:02:19;;;;;;;2.45;2.00;;;;;;;20.64;52.49;100153.34;4971190;28;20892;-76
2021/10/02 10:04:53;;;;;;;4.45;1.90;;;;;;;20.92;48.60;100144.81;4995768;28;20451;-74
2021/10/02 10:07:20;;;;;;;3.65;1.67;;;;;;;21.06;49.51;100145.50;4972204;28;20450;-74
2021/10/02 10:10:01;;;;;;;2.88;1.90;;;;;;;21.36;49.00;100139.06;4973086;28;20397;-74
2021/10/02 10:12:27;;;;;;;3.10;1.60;;;;;;;21.63;48.95;100144.25;4995614;28;20408;-75
2021/10/02 10:14:52;;;;;;;3.35;1.60;;;;;;;22.14;43.75;100148.88;5002209;28;20396;-74
2021/10/02 10:17:17;;;;;;;3.00;1.50;;;;;;;22.64;43.44;100149.03;4973120;28;20514;-74
2021/10/02 10:19:45;;;;;;;2.63;1.30;;;;;;;22.89;45.05;100147.28;4973210;28;20424;-74
2021/10/02 10:22:18;;;;;;;1.60;1.50;;;;;;;23.67;41.84;100139.25;4968904;28;20466;-74
2021/10/02 10:24:56;;;;;;;2.42;1.33;;;;;;;23.99;41.33;100138.44;4972853;28;20400;-74
2021/10/02 10:27:37;;;;;;;2.63;1.60;;;;;;;24.60;38.99;100124.72;4972235;28;20408;-74
2021/10/02 10:30:17;;;;;;;1.35;1.25;;;;;;;24.74;39.68;100130.69;4960717;28;20400;-75
2021/10/02 10:32:56;;;;;;;1.60;1.23;;;;;;;24.66;40.27;100126.91;4967896;28;20911;-74
2021/10/02 10:35:27;;;;;;;1.90;1.30;;;;;;;24.80;39.65;100112.69;4972524;28;20920;-74
2021/10/02 10:37:52;;;;;;;2.72;1.52;;;;;;;24.88;39.09;100111.78;4966029;28;20428;-74
2021/10/02 10:40:18;;;;;;;2.50;1.80;;;;;;;25.25;38.95;100106.97;4972790;28;20412;-74
2021/10/02 10:42:45;;;;;;;3.65;1.70;;;;;;;25.34;38.82;100107.63;4970038;28;20420;-74
2021/10/02 10:45:10;;;;;;;1.23;1.20;;;;;;;25.22;39.72;100105.72;4969034;28;20405;-74
2021/10/02 10:47:36;;;;;;;1.95;1.77;;;;;;;24.69;39.62;100100.47;4972074;28;20400;-74
2021/10/02 10:50:02;;;;;;;1.90;1.70;;;;;;;24.93;40.11;100102.44;4974218;28;20392;-74
2021/10/02 10:52:35;;;;;;;3.47;1.63;;;;;;;25.34;37.58;100102.09;4969780;28;20423;-74
2021/10/02 10:55:01;;;;;;;2.47;1.70;;;;;;;25.51;38.18;100101.03;4971315;28;20499;-74
2021/10/02 10:57:41;;;;;;;2.30;1.80;;;;;;;25.29;39.07;100097.59;4970998;28;20508;-75
2021/10/02 11:00:11;;;;;;;5.80;1.73;;;;;;;25.36;38.38;100085.88;4961545;28;20946;-74
2021/10/02 11:02:54;;;;;;;2.03;1.77;;;;;;;25.72;36.85;100087.72;4970261;28;20502;-75
2021/10/02 11:05:34;;;;;;;1.77;1.67;;;;;;;26.49;35.59;100090.94;4974366;28;20760;-74
2021/10/02 11:08:00;;;;;;;1.67;1.55;;;;;;;27.21;34.80;100089.47;4972195;28;20441;-74
2021/10/02 11:10:48;;;;;;;2.13;2.00;;;;;;;28.28;33.50;100080.06;4972413;28;20424;-74
2021/10/02 11:13:48;;;;;;;3.45;1.90;;;;;;;28.50;32.05;100072.84;4967884;28;20418;-75
2021/10/02 11:16:43;;;;;;;3.10;1.73;;;;;;;28.21;33.38;100068.00;4967636;28;20411;-74
2021/10/02 11:19:28;;;;;;;2.05;1.70;;;;;;;26.66;34.92;100060.81;4963564;28;20427;-74
2021/10/02 11:22:30;;;;;;;3.03;1.80;;;;;;;26.17;35.03;100054.88;4964711;28;20419;-74
2021/10/02 11:24:58;;;;;;;6.57;2.15;;;;;;;25.73;36.52;100054.06;4979187;28;20416;-74
2021/10/02 11:27:25;;;;;;;1.98;1.88;;;;;;;25.28;37.58;100048.03;4971443;28;20958;-74
2021/10/02 11:29:52;;;;;;;1.83;1.70;;;;;;;24.81;39.10;100036.69;4963837;28;20408;-74
2021/10/02 11:32:17;;;;;;;2.10;1.60;;;;;;;24.87;40.34;100032.56;4963372;28;20938;-74
2021/10/02 11:35:16;;;;;;;2.13;1.90;;;;;;;24.79;40.23;100033.47;4967971;28;20536;-74
2021/10/02 11:37:57;;;;;;;2.03;1.73;;;;;;;24.55;40.33;100023.25;4971521;28;20432;-74
2021/10/02 11:40:40;;;;;;;2.05;1.38;;;;;;;24.26;38.57;100013.22;4975230;28;20404;-74
2021/10/02 11:43:11;;;;;;;1.77;1.67;;;;;;;24.02;38.56;100015.16;4972334;28;20447;-74
2021/10/02 11:45:37;;;;;;;1.90;1.50;;;;;;;23.98;39.96;100003.13;4975903;28;20411;-74
2021/10/02 11:48:20;;;;;;;1.70;1.60;;;;;;;23.47;41.03;99990.75;4974877;28;20790;-74
2021/10/02 11:51:16;;;;;;;2.33;1.80;;;;;;;22.86;43.07;99986.88;4975043;28;20463;-74
2021/10/02 11:53:45;;;;;;;3.00;1.52;;;;;;;22.47;43.09;99983.41;4973206;28;20432;-74
2021/10/02 11:56:12;;;;;;;1.77;1.67;;;;;;;22.26;43.71;99984.53;4971079;28;20402;-74
2021/10/02 11:58:42;;;;;;;2.63;2.10;;;;;;;22.44;41.88;99978.56;4975349;28;20422;-74
2021/10/02 12:01:25;;;;;;;2.10;1.90;;;;;;;22.98;40.78;99971.19;4972768;28;20483;-74
2021/10/02 12:03:58;;;;;;;1.60;1.42;;;;;;;23.24;41.07;99962.66;4971694;28;20451;-74
2021/10/02 12:06:24;;;;;;;2.13;2.00;;;;;;;23.04;40.84;99952.44;4975460;28;20938;-74
2021/10/02 12:08:50;;;;;;;2.30;1.50;;;;;;;22.74;40.87;99960.03;4967435;28;20402;-75
2021/10/02 12:11:17;;;;;;;2.10;1.53;;;;;;;22.65;42.38;99948.22;4967969;28;20494;-74
2021/10/02 12:13:45;;;;;;;2.75;2.10;;;;;;;22.52;42.44;99949.28;4969833;28;20416;-74
2021/10/02 12:16:30;;;;;;;2.33;1.70;;;;;;;22.95;42.81;99944.25;4969224;28;20973;-74
2021/10/02 12:19:01;;;;;;;1.90;1.38;;;;;;;23.99;40.83;99952.19;4974319;28;20783;-75
2021/10/02 12:21:28;;;;;;;1.63;1.52;;;;;;;24.53;36.81;99944.41;4965692;28;20422;-75
2021/10/02 12:24:15;;;;;;;1.37;1.30;;;;;;;24.77;35.86;99934.06;4974232;28;20404;-75
2021/10/02 12:26:50;;;;;;;1.27;1.20;;;;;;;24.84;35.91;99929.91;4971573;28;20411;-73
2021/10/02 12:29:25;;;;;;;1.25;1.25;;;;;;;24.69;35.87;99929.47;4972774;28;20399;-74
2021/10/02 12:32:21;;;;;;;2.60;1.50;;;;;;;24.27;37.63;99929.00;4973361;28;20498;-74